createdAt,value
2022-12-01T00:00:33.252Z,1023.47
2022-12-01T00:01:33.279Z,1023.45
2022-12-01T00:02:33.404Z,1023.41
2022-12-01T00:03:33.223Z,1023.44
2022-12-01T00:04:33.209Z,1023.43
2022-12-01T00:05:33.200Z,1023.43
2022-12-01T00:06:33.196Z,1023.42
2022-12-01T00:07:33.200Z,1023.38
2022-12-01T00:08:33.168Z,1023.41
2022-12-01T00:09:33.159Z,1023.44
2022-12-01T00:10:33.147Z,1023.41
2022-12-01T00:11:33.151Z,1023.39
2022-12-01T00:12:33.124Z,1023.36
2022-12-01T00:13:33.118Z,1023.42
2022-12-01T00:14:33.104Z,1023.35
2022-12-01T00:15:33.096Z,1023.34
2022-12-01T00:16:33.180Z,1023.35
2022-12-01T00:17:33.096Z,1023.32
2022-12-01T00:18:33.063Z,1023.34
2022-12-01T00:19:33.051Z,1023.38
2022-12-01T00:20:33.042Z,1023.35
2022-12-01T00:21:33.052Z,1023.33
2022-12-01T00:22:33.019Z,1023.34
2022-12-01T00:23:33.009Z,1023.41
2022-12-01T00:24:33.000Z,1023.39
2022-12-01T00:25:32.988Z,1023.39
2022-12-01T00:26:32.987Z,1023.36
2022-12-01T00:27:32.967Z,1023.40
2022-12-01T00:28:32.955Z,1023.39
2022-12-01T00:29:32.947Z,1023.41
2022-12-01T00:30:32.935Z,1023.39
2022-12-01T00:31:33.011Z,1023.42
2022-12-01T00:32:32.913Z,1023.37
2022-12-01T00:33:32.921Z,1023.39
2022-12-01T00:34:32.894Z,1023.42
2022-12-01T00:35:32.883Z,1023.41
2022-12-01T00:36:32.878Z,1023.40
2022-12-01T00:37:32.860Z,1023.38
2022-12-01T00:38:32.848Z,1023.37
2022-12-01T00:39:32.839Z,1023.41
2022-12-01T00:40:32.829Z,1023.38
2022-12-01T00:41:32.829Z,1023.39
2022-12-01T00:42:32.808Z,1023.39
2022-12-01T00:43:32.798Z,1023.40
2022-12-01T00:44:32.785Z,1023.39
2022-12-01T00:45:32.829Z,1023.43
2022-12-01T00:46:32.829Z,1023.44
2022-12-01T00:47:32.760Z,1023.42
2022-12-01T00:48:32.746Z,1023.48
2022-12-01T00:49:32.756Z,1023.51
2022-12-01T00:50:32.721Z,1023.41
2022-12-01T00:51:32.724Z,1023.44
2022-12-01T00:52:32.720Z,1023.45
2022-12-01T00:53:32.695Z,1023.47
2022-12-01T00:54:32.681Z,1023.41
2022-12-01T00:55:32.669Z,1023.40
2022-12-01T00:56:32.672Z,1023.44
2022-12-01T00:57:32.650Z,1023.44
2022-12-01T00:58:32.639Z,1023.44
2022-12-01T00:59:32.630Z,1023.39
2022-12-01T01:00:32.615Z,1023.39
2022-12-01T01:01:32.661Z,1023.42
2022-12-01T01:02:32.681Z,1023.43
2022-12-01T01:03:32.589Z,1023.45
2022-12-01T01:04:32.581Z,1023.48
2022-12-01T01:05:32.582Z,1023.44
2022-12-01T01:06:32.562Z,1023.44
2022-12-01T01:07:32.624Z,1023.46
2022-12-01T01:08:32.543Z,1023.48
2022-12-01T01:09:32.523Z,1023.49
2022-12-01T01:10:32.509Z,1023.51
2022-12-01T01:11:32.508Z,1023.55
2022-12-01T01:12:32.489Z,1023.56
2022-12-01T01:13:32.480Z,1023.53
2022-12-01T01:14:32.466Z,1023.56
2022-12-01T01:15:32.459Z,1023.55
2022-12-01T01:16:32.494Z,1023.57
2022-12-01T01:17:32.436Z,1023.58
2022-12-01T01:18:32.425Z,1023.59
2022-12-01T01:19:32.415Z,1023.58
2022-12-01T01:20:32.409Z,1023.58
2022-12-01T01:21:32.419Z,1023.54
2022-12-01T01:22:32.382Z,1023.55
2022-12-01T01:23:32.375Z,1023.56
2022-12-01T01:24:32.426Z,1023.56
2022-12-01T01:25:32.353Z,1023.57
2022-12-01T01:26:32.352Z,1023.58
2022-12-01T01:27:32.331Z,1023.54
2022-12-01T01:28:32.318Z,1023.54
2022-12-01T01:29:32.311Z,1023.57
2022-12-01T01:30:32.326Z,1023.54
2022-12-01T01:31:32.298Z,1023.57
2022-12-01T01:32:32.279Z,1023.57
2022-12-01T01:33:32.267Z,1023.57
2022-12-01T01:34:32.258Z,1023.55
2022-12-01T01:35:32.247Z,1023.52
2022-12-01T01:36:32.244Z,1023.59
2022-12-01T01:37:32.262Z,1023.56
2022-12-01T01:38:32.213Z,1023.58
2022-12-01T01:39:32.204Z,1023.59
2022-12-01T01:40:32.192Z,1023.56
2022-12-01T01:41:32.197Z,1023.59
2022-12-01T01:42:32.170Z,1023.55
2022-12-01T01:43:32.162Z,1023.55
2022-12-01T01:44:32.172Z,1023.56
2022-12-01T01:45:32.140Z,1023.58
2022-12-01T01:46:32.185Z,1023.58
2022-12-01T01:47:32.123Z,1023.62
2022-12-01T01:48:32.106Z,1023.59
2022-12-01T01:49:32.098Z,1023.58
2022-12-01T01:50:32.085Z,1023.59
2022-12-01T01:51:32.086Z,1023.59
2022-12-01T01:52:32.066Z,1023.58
2022-12-01T01:53:32.088Z,1023.58
2022-12-01T01:54:32.044Z,1023.62
2022-12-01T01:55:32.038Z,1023.58
2022-12-01T01:56:32.043Z,1023.62
2022-12-01T01:57:32.016Z,1023.63
2022-12-01T01:58:32.002Z,1023.60
2022-12-01T01:59:31.994Z,1023.57
2022-12-01T02:00:31.994Z,1023.54
2022-12-01T02:01:32.048Z,1023.57
2022-12-01T02:02:31.998Z,1023.55
2022-12-01T02:03:31.951Z,1023.55
2022-12-01T02:04:31.937Z,1023.55
2022-12-01T02:05:31.929Z,1023.57
2022-12-01T02:06:31.925Z,1023.52
2022-12-01T02:07:31.981Z,1023.53
2022-12-01T02:08:31.894Z,1023.48
2022-12-01T02:09:31.908Z,1023.52
2022-12-01T02:10:31.878Z,1023.54
2022-12-01T02:11:31.915Z,1023.50
2022-12-01T02:12:31.854Z,1023.61
2022-12-01T02:13:31.847Z,1023.53
2022-12-01T02:14:31.830Z,1023.46
2022-12-01T02:15:31.824Z,1023.46
2022-12-01T02:16:31.872Z,1023.47
2022-12-01T02:17:31.800Z,1023.48
2022-12-01T02:18:31.789Z,1023.41
2022-12-01T02:19:31.780Z,1023.42
2022-12-01T02:20:31.771Z,1023.37
2022-12-01T02:21:31.770Z,1023.44
2022-12-01T02:22:31.750Z,1023.46
2022-12-01T02:23:31.741Z,1023.40
2022-12-01T02:24:31.725Z,1023.43
2022-12-01T02:25:31.739Z,1023.45
2022-12-01T02:26:31.719Z,1023.42
2022-12-01T02:27:31.694Z,1023.46
2022-12-01T02:28:31.685Z,1023.41
2022-12-01T02:29:31.673Z,1023.41
2022-12-01T02:30:31.730Z,1023.41
2022-12-01T02:31:31.663Z,1023.41
2022-12-01T02:32:31.645Z,1023.37
2022-12-01T02:33:31.632Z,1023.44
2022-12-01T02:34:31.674Z,1023.45
2022-12-01T02:35:31.627Z,1023.46
2022-12-01T02:36:31.607Z,1023.47
2022-12-01T02:37:31.589Z,1023.46
2022-12-01T02:38:31.581Z,1023.45
2022-12-01T02:39:31.577Z,1023.51
2022-12-01T02:40:31.560Z,1023.45
2022-12-01T02:41:31.578Z,1023.44
2022-12-01T02:42:31.538Z,1023.40
2022-12-01T02:43:31.526Z,1023.39
2022-12-01T02:44:31.517Z,1023.43
2022-12-01T02:45:31.508Z,1023.38
2022-12-01T02:46:31.593Z,1023.43
2022-12-01T02:47:31.484Z,1023.37
2022-12-01T02:48:31.476Z,1023.34
2022-12-01T02:49:31.463Z,1023.37
2022-12-01T02:50:31.459Z,1023.42
2022-12-01T02:51:31.460Z,1023.38
2022-12-01T02:52:32.003Z,1023.39
2022-12-01T02:53:31.418Z,1023.37
2022-12-01T02:54:31.410Z,1023.42
2022-12-01T02:55:31.402Z,1023.43
2022-12-01T02:56:31.395Z,1023.39
2022-12-01T02:57:31.398Z,1023.41
2022-12-01T02:58:31.364Z,1023.40
2022-12-01T02:59:31.360Z,1023.38
2022-12-01T03:00:31.344Z,1023.43
2022-12-01T03:01:31.386Z,1023.42
2022-12-01T03:02:31.382Z,1023.39
2022-12-01T03:03:31.315Z,1023.39
2022-12-01T03:04:31.301Z,1023.46
2022-12-01T03:05:31.295Z,1023.39
2022-12-01T03:06:31.294Z,1023.36
2022-12-01T03:07:31.308Z,1023.43
2022-12-01T03:08:31.261Z,1023.37
2022-12-01T03:09:31.256Z,1023.40
2022-12-01T03:10:31.238Z,1023.40
2022-12-01T03:11:31.240Z,1023.36
2022-12-01T03:12:31.218Z,1023.38
2022-12-01T03:13:31.245Z,1023.38
2022-12-01T03:14:31.196Z,1023.37
2022-12-01T03:15:31.192Z,1023.30
2022-12-01T03:16:31.342Z,1023.32
2022-12-01T03:17:31.175Z,1023.33
2022-12-01T03:18:31.155Z,1023.38
2022-12-01T03:19:31.145Z,1023.40
2022-12-01T03:20:31.132Z,1023.36
2022-12-01T03:21:31.138Z,1023.41
2022-12-01T03:22:31.112Z,1023.43
2022-12-01T03:23:31.103Z,1023.40
2022-12-01T03:24:31.092Z,1023.39
2022-12-01T03:25:31.083Z,1023.39
2022-12-01T03:26:31.079Z,1023.38
2022-12-01T03:27:31.062Z,1023.40
2022-12-01T03:28:31.050Z,1023.38
2022-12-01T03:29:31.062Z,1023.39
2022-12-01T03:30:31.029Z,1023.40
2022-12-01T03:31:31.093Z,1023.41
2022-12-01T03:32:31.011Z,1023.47
2022-12-01T03:33:31.015Z,1023.44
2022-12-01T03:34:30.987Z,1023.44
2022-12-01T03:35:30.980Z,1023.44
2022-12-01T03:36:30.989Z,1023.43
2022-12-01T03:37:30.962Z,1023.49
2022-12-01T03:38:30.947Z,1023.46
2022-12-01T03:39:30.936Z,1023.39
2022-12-01T03:40:30.925Z,1023.41
2022-12-01T03:41:30.916Z,1023.43
2022-12-01T03:42:30.913Z,1023.44
2022-12-01T03:43:30.900Z,1023.44
2022-12-01T03:44:30.887Z,1023.40
2022-12-01T03:45:30.888Z,1023.40
2022-12-01T03:46:31.015Z,1023.46
2022-12-01T03:47:30.870Z,1023.45
2022-12-01T03:48:30.842Z,1023.45
2022-12-01T03:49:30.842Z,1023.47
2022-12-01T03:50:30.820Z,1023.51
2022-12-01T03:51:30.807Z,1023.50
2022-12-01T03:52:30.817Z,1023.46
2022-12-01T03:53:30.786Z,1023.49
2022-12-01T03:54:30.778Z,1023.50
2022-12-01T03:55:30.765Z,1023.45
2022-12-01T03:56:30.768Z,1023.45
2022-12-01T03:57:30.753Z,1023.48
2022-12-01T03:58:30.738Z,1023.45
2022-12-01T03:59:30.724Z,1023.45
2022-12-01T04:00:30.717Z,1023.48
2022-12-01T04:01:30.787Z,1023.46
2022-12-01T04:02:30.750Z,1023.47
2022-12-01T04:03:30.682Z,1023.49
2022-12-01T04:04:30.678Z,1023.49
2022-12-01T04:05:30.661Z,1023.52
2022-12-01T04:06:30.655Z,1023.45
2022-12-01T04:07:30.673Z,1023.43
2022-12-01T04:08:30.637Z,1023.47
2022-12-01T04:09:30.622Z,1023.48
2022-12-01T04:10:30.615Z,1023.52
2022-12-01T04:11:32.806Z,1023.53
2022-12-01T04:12:30.612Z,1023.49
2022-12-01T04:13:30.578Z,1023.53
2022-12-01T04:14:30.569Z,1023.52
2022-12-01T04:15:30.557Z,1023.52
2022-12-01T04:16:30.633Z,1023.54
2022-12-01T04:17:30.565Z,1023.59
2022-12-01T04:18:30.538Z,1023.58
2022-12-01T04:19:30.515Z,1023.59
2022-12-01T04:20:30.508Z,1023.61
2022-12-01T04:21:30.494Z,1023.60
2022-12-01T04:22:30.505Z,1023.54
2022-12-01T04:23:30.475Z,1023.52
2022-12-01T04:24:30.468Z,1023.51
2022-12-01T04:25:30.455Z,1023.53
2022-12-01T04:26:30.443Z,1023.60
2022-12-01T04:27:30.441Z,1023.59
2022-12-01T04:28:30.423Z,1023.55
2022-12-01T04:29:30.425Z,1023.50
2022-12-01T04:30:30.401Z,1023.55
2022-12-01T04:31:30.502Z,1023.58
2022-12-01T04:32:30.390Z,1023.59
2022-12-01T04:33:30.389Z,1023.58
2022-12-01T04:34:30.361Z,1023.58
2022-12-01T04:35:30.351Z,1023.62
2022-12-01T04:36:30.340Z,1023.59
2022-12-01T04:37:30.339Z,1023.57
2022-12-01T04:38:31.144Z,1023.56
2022-12-01T04:39:30.305Z,1023.57
2022-12-01T04:40:30.300Z,1023.56
2022-12-01T04:41:30.286Z,1023.56
2022-12-01T04:42:30.292Z,1023.56
2022-12-01T04:43:30.266Z,1023.59
2022-12-01T04:44:34.788Z,1023.58
2022-12-01T04:45:31.241Z,1023.61
2022-12-01T04:46:30.344Z,1023.60
2022-12-01T04:47:30.230Z,1023.59
2022-12-01T04:48:30.212Z,1023.59
2022-12-01T04:49:30.221Z,1023.57
2022-12-01T04:50:30.193Z,1023.58
2022-12-01T04:51:30.188Z,1023.61
2022-12-01T04:52:35.099Z,1023.64
2022-12-01T04:53:31.157Z,1023.64
2022-12-01T04:54:30.151Z,1023.65
2022-12-01T04:55:30.141Z,1023.70
2022-12-01T04:56:30.130Z,1023.68
2022-12-01T04:57:30.128Z,1023.68
2022-12-01T04:58:30.109Z,1023.72
2022-12-01T04:59:30.111Z,1023.69
2022-12-01T05:00:30.155Z,1023.70
2022-12-01T05:01:30.085Z,1023.71
2022-12-01T05:02:30.203Z,1023.75
2022-12-01T05:03:30.060Z,1023.76
2022-12-01T05:04:30.054Z,1023.70
2022-12-01T05:05:30.054Z,1023.70
2022-12-01T05:06:30.027Z,1023.72
2022-12-01T05:07:30.077Z,1023.69
2022-12-01T05:08:30.007Z,1023.70
2022-12-01T05:09:29.990Z,1023.70
2022-12-01T05:10:29.985Z,1023.69
2022-12-01T05:11:29.971Z,1023.68
2022-12-01T05:12:29.973Z,1023.76
2022-12-01T05:13:29.951Z,1023.71
2022-12-01T05:14:29.943Z,1023.75
2022-12-01T05:15:29.928Z,1023.73
2022-12-01T05:16:30.023Z,1023.73
2022-12-01T05:17:33.993Z,1023.72
2022-12-01T05:18:30.944Z,1023.73
2022-12-01T05:19:29.887Z,1023.72
2022-12-01T05:20:29.880Z,1023.75
2022-12-01T05:21:29.888Z,1023.77
2022-12-01T05:22:57.272Z,1023.75
2022-12-01T05:23:30.845Z,1023.76
2022-12-01T05:24:29.841Z,1023.80
2022-12-01T05:25:29.825Z,1023.80
2022-12-01T05:26:29.814Z,1023.77
2022-12-01T05:27:29.810Z,1023.80
2022-12-01T05:28:29.798Z,1023.80
2022-12-01T05:29:29.781Z,1023.81
2022-12-01T05:30:29.774Z,1023.78
2022-12-01T05:31:29.823Z,1023.75
2022-12-01T05:32:29.761Z,1023.76
2022-12-01T05:33:29.745Z,1023.76
2022-12-01T05:34:29.742Z,1023.79
2022-12-01T05:35:29.719Z,1023.85
2022-12-01T05:36:29.712Z,1023.81
2022-12-01T05:37:29.728Z,1023.86
2022-12-01T05:38:29.778Z,1023.87
2022-12-01T05:39:29.679Z,1023.85
2022-12-01T05:40:29.675Z,1023.82
2022-12-01T05:41:29.656Z,1023.92
2022-12-01T05:42:29.660Z,1023.89
2022-12-01T05:43:29.882Z,1023.91
2022-12-01T05:44:29.628Z,1023.89
2022-12-01T05:45:29.672Z,1023.92
2022-12-01T05:46:29.609Z,1023.90
2022-12-01T05:47:29.603Z,1023.96
2022-12-01T05:48:29.585Z,1023.94
2022-12-01T05:49:29.578Z,1023.90
2022-12-01T05:50:29.572Z,1023.90
2022-12-01T05:51:29.552Z,1023.87
2022-12-01T05:52:29.558Z,1023.89
2022-12-01T05:53:29.553Z,1023.91
2022-12-01T05:54:29.524Z,1023.97
2022-12-01T05:55:29.511Z,1023.92
2022-12-01T05:56:29.517Z,1023.96
2022-12-01T05:57:29.495Z,1023.91
2022-12-01T05:58:29.479Z,1023.92
2022-12-01T05:59:29.468Z,1023.96
2022-12-01T06:00:29.459Z,1023.90
2022-12-01T06:01:29.446Z,1023.99
2022-12-01T06:02:29.448Z,1023.97
2022-12-01T06:03:29.426Z,1023.96
2022-12-01T06:04:29.509Z,1023.96
2022-12-01T06:05:29.406Z,1023.94
2022-12-01T06:06:29.403Z,1023.90
2022-12-01T06:07:29.453Z,1023.97
2022-12-01T06:08:29.376Z,1023.95
2022-12-01T06:09:29.388Z,1023.95
2022-12-01T06:10:29.468Z,1023.96
2022-12-01T06:11:29.342Z,1023.92
2022-12-01T06:12:29.343Z,1023.96
2022-12-01T06:13:29.321Z,1023.97
2022-12-01T06:14:29.316Z,1023.96
2022-12-01T06:15:29.301Z,1023.97
2022-12-01T06:16:29.337Z,1023.93
2022-12-01T06:17:29.289Z,1023.98
2022-12-01T06:18:29.293Z,1023.94
2022-12-01T06:19:29.261Z,1023.95
2022-12-01T06:20:29.250Z,1023.95
2022-12-01T06:21:29.254Z,1023.98
2022-12-01T06:22:29.263Z,1023.94
2022-12-01T06:23:30.773Z,1023.94
2022-12-01T06:24:29.209Z,1023.99
2022-12-01T06:25:29.212Z,1024.04
2022-12-01T06:26:29.189Z,1024.00
2022-12-01T06:27:29.182Z,1024.04
2022-12-01T06:28:29.166Z,1024.04
2022-12-01T06:29:29.197Z,1024.00
2022-12-01T06:30:29.144Z,1023.99
2022-12-01T06:31:29.221Z,1023.98
2022-12-01T06:32:29.132Z,1024.00
2022-12-01T06:33:29.114Z,1024.03
2022-12-01T06:34:29.107Z,1024.04
2022-12-01T06:35:29.094Z,1024.02
2022-12-01T06:36:29.081Z,1024.06
2022-12-01T06:37:29.078Z,1024.07
2022-12-01T06:38:29.061Z,1024.10
2022-12-01T06:39:29.051Z,1024.10
2022-12-01T06:40:29.043Z,1024.03
2022-12-01T06:41:29.045Z,1024.07
2022-12-01T06:42:29.033Z,1024.09
2022-12-01T06:43:29.011Z,1024.10
2022-12-01T06:44:29.001Z,1024.14
2022-12-01T06:45:29.136Z,1024.14
2022-12-01T06:46:29.091Z,1024.05
2022-12-01T06:47:28.976Z,1024.11
2022-12-01T06:48:28.986Z,1024.09
2022-12-01T06:49:28.944Z,1024.08
2022-12-01T06:50:28.951Z,1024.14
2022-12-01T06:51:28.939Z,1024.15
2022-12-01T06:52:28.961Z,1024.10
2022-12-01T06:53:28.907Z,1024.13
2022-12-01T06:54:28.892Z,1024.15
2022-12-01T06:55:28.886Z,1024.13
2022-12-01T06:56:28.872Z,1024.12
2022-12-01T06:57:28.891Z,1024.13
2022-12-01T06:58:28.850Z,1024.13
2022-12-01T06:59:28.841Z,1024.11
2022-12-01T07:00:28.936Z,1024.11
2022-12-01T07:01:28.975Z,1024.16
2022-12-01T07:02:28.880Z,1024.15
2022-12-01T07:03:28.808Z,1024.13
2022-12-01T07:04:28.789Z,1024.16
2022-12-01T07:05:28.778Z,1024.19
2022-12-01T07:06:28.769Z,1024.18
2022-12-01T07:07:28.829Z,1024.16
2022-12-01T07:08:28.746Z,1024.15
2022-12-01T07:09:28.738Z,1024.20
2022-12-01T07:10:28.884Z,1024.17
2022-12-01T07:11:28.721Z,1024.12
2022-12-01T07:12:28.736Z,1024.09
2022-12-01T07:13:33.095Z,1024.12
2022-12-01T07:14:28.688Z,1024.10
2022-12-01T07:15:28.678Z,1024.17
2022-12-01T07:16:28.703Z,1024.17
2022-12-01T07:17:28.657Z,1024.17
2022-12-01T07:18:28.656Z,1024.16
2022-12-01T07:19:28.631Z,1024.20
2022-12-01T07:20:28.625Z,1024.17
2022-12-01T07:21:28.610Z,1024.22
2022-12-01T07:22:32.585Z,1024.21
2022-12-01T07:23:28.595Z,1024.20
2022-12-01T07:24:28.581Z,1024.21
2022-12-01T07:25:28.567Z,1024.28
2022-12-01T07:26:28.561Z,1024.23
2022-12-01T07:27:28.554Z,1024.23
2022-12-01T07:28:28.544Z,1024.30
2022-12-01T07:29:28.568Z,1024.29
2022-12-01T07:30:28.804Z,1024.26
2022-12-01T07:31:28.619Z,1024.27
2022-12-01T07:32:28.506Z,1024.28
2022-12-01T07:33:28.489Z,1024.27
2022-12-01T07:34:28.473Z,1024.24
2022-12-01T07:35:28.467Z,1024.28
2022-12-01T07:36:28.453Z,1024.28
2022-12-01T07:37:28.537Z,1024.31
2022-12-01T07:38:28.441Z,1024.31
2022-12-01T07:39:28.428Z,1024.33
2022-12-01T07:40:28.409Z,1024.32
2022-12-01T07:41:28.474Z,1024.29
2022-12-01T07:42:28.398Z,1024.33
2022-12-01T07:43:28.381Z,1024.34
2022-12-01T07:44:28.384Z,1024.34
2022-12-01T07:45:28.381Z,1024.37
2022-12-01T07:46:28.389Z,1024.35
2022-12-01T07:47:28.402Z,1024.37
2022-12-01T07:48:28.327Z,1024.42
2022-12-01T07:49:28.321Z,1024.39
2022-12-01T07:50:28.310Z,1024.35
2022-12-01T07:51:28.372Z,1024.34
2022-12-01T07:52:28.356Z,1024.39
2022-12-01T07:53:28.277Z,1024.38
2022-12-01T07:54:28.265Z,1024.38
2022-12-01T07:55:28.254Z,1024.38
2022-12-01T07:56:28.244Z,1024.34
2022-12-01T07:57:28.242Z,1024.41
2022-12-01T07:58:28.221Z,1024.38
2022-12-01T07:59:28.211Z,1024.43
2022-12-01T08:00:28.251Z,1024.44
2022-12-01T08:01:28.287Z,1024.39
2022-12-01T08:02:28.256Z,1024.37
2022-12-01T08:03:28.177Z,1024.39
2022-12-01T08:04:28.159Z,1024.44
2022-12-01T08:05:28.151Z,1024.43
2022-12-01T08:06:28.136Z,1024.43
2022-12-01T08:07:29.998Z,1024.37
2022-12-01T08:08:28.125Z,1024.41
2022-12-01T08:09:28.108Z,1024.38
2022-12-01T08:10:28.094Z,1024.46
2022-12-01T08:11:28.091Z,1024.41
2022-12-01T08:12:28.084Z,1024.41
2022-12-01T08:13:28.066Z,1024.43
2022-12-01T08:14:28.051Z,1024.42
2022-12-01T08:15:28.138Z,1024.46
2022-12-01T08:16:28.030Z,1024.46
2022-12-01T08:17:28.051Z,1024.50
2022-12-01T08:18:28.011Z,1024.40
2022-12-01T08:19:28.009Z,1024.44
2022-12-01T08:20:28.089Z,1024.41
2022-12-01T08:21:27.986Z,1024.39
2022-12-01T08:22:27.979Z,1024.43
2022-12-01T08:23:27.959Z,1024.45
2022-12-01T08:24:27.946Z,1024.45
2022-12-01T08:25:27.940Z,1024.42
2022-12-01T08:26:27.929Z,1024.46
2022-12-01T08:27:27.927Z,1024.49
2022-12-01T08:28:27.908Z,1024.47
2022-12-01T08:29:27.896Z,1024.50
2022-12-01T08:30:27.884Z,1024.42
2022-12-01T08:31:27.961Z,1024.43
2022-12-01T08:32:27.871Z,1024.52
2022-12-01T08:33:27.870Z,1024.46
2022-12-01T08:34:27.853Z,1024.51
2022-12-01T08:35:27.834Z,1024.48
2022-12-01T08:36:27.826Z,1024.51
2022-12-01T08:37:27.827Z,1024.50
2022-12-01T08:38:27.802Z,1024.49
2022-12-01T08:39:27.791Z,1024.47
2022-12-01T08:40:27.795Z,1024.54
2022-12-01T08:41:27.770Z,1024.43
2022-12-01T08:42:27.784Z,1024.50
2022-12-01T08:43:56.138Z,1024.47
2022-12-01T08:44:28.757Z,1024.44
2022-12-01T08:45:27.748Z,1024.41
2022-12-01T08:46:27.813Z,1024.43
2022-12-01T08:47:27.738Z,1024.44
2022-12-01T08:48:27.703Z,1024.43
2022-12-01T08:49:27.720Z,1024.41
2022-12-01T08:50:27.673Z,1024.44
2022-12-01T08:51:27.674Z,1024.44
2022-12-01T08:52:27.669Z,1024.42
2022-12-01T08:53:27.644Z,1024.48
2022-12-01T08:54:27.631Z,1024.48
2022-12-01T08:55:27.622Z,1024.49
2022-12-01T08:56:27.609Z,1024.48
2022-12-01T08:57:27.646Z,1024.50
2022-12-01T08:58:27.590Z,1024.48
2022-12-01T08:59:27.581Z,1024.51
2022-12-01T09:00:27.716Z,1024.53
2022-12-01T09:01:27.631Z,1024.52
2022-12-01T09:02:27.756Z,1024.54
2022-12-01T09:03:27.597Z,1024.54
2022-12-01T09:04:28.104Z,1024.54
2022-12-01T09:05:27.538Z,1024.54
2022-12-01T09:06:27.558Z,1024.50
2022-12-01T09:07:27.514Z,1024.52
2022-12-01T09:08:27.507Z,1024.48
2022-12-01T09:09:27.491Z,1024.45
2022-12-01T09:10:27.556Z,1024.52
2022-12-01T09:11:27.483Z,1024.53
2022-12-01T09:12:27.452Z,1024.52
2022-12-01T09:13:27.609Z,1024.56
2022-12-01T09:14:27.428Z,1024.56
2022-12-01T09:15:27.440Z,1024.53
2022-12-01T09:16:27.570Z,1024.58
2022-12-01T09:17:27.436Z,1024.52
2022-12-01T09:18:27.392Z,1024.54
2022-12-01T09:19:27.389Z,1024.56
2022-12-01T09:20:27.357Z,1024.58
2022-12-01T09:21:27.372Z,1024.62
2022-12-01T09:22:27.342Z,1024.58
2022-12-01T09:23:27.340Z,1024.61
2022-12-01T09:24:27.327Z,1024.54
2022-12-01T09:25:27.313Z,1024.52
2022-12-01T09:26:27.321Z,1024.56
2022-12-01T09:27:27.284Z,1024.52
2022-12-01T09:28:27.307Z,1024.52
2022-12-01T09:29:27.282Z,1024.51
2022-12-01T09:30:27.248Z,1024.54
2022-12-01T09:31:27.376Z,1024.54
2022-12-01T09:32:27.231Z,1024.48
2022-12-01T09:33:27.243Z,1024.49
2022-12-01T09:34:27.211Z,1024.49
2022-12-01T09:35:27.198Z,1024.49
2022-12-01T09:36:27.193Z,1024.50
2022-12-01T09:37:27.194Z,1024.48
2022-12-01T09:38:27.177Z,1024.52
2022-12-01T09:39:27.154Z,1024.51
2022-12-01T09:40:27.144Z,1024.50
2022-12-01T09:41:27.134Z,1024.51
2022-12-01T09:42:32.222Z,1024.51
2022-12-01T09:43:28.122Z,1024.54
2022-12-01T09:44:27.101Z,1024.51
2022-12-01T09:45:27.091Z,1024.52
2022-12-01T09:46:27.116Z,1024.50
2022-12-01T09:47:27.071Z,1024.49
2022-12-01T09:48:27.068Z,1024.45
2022-12-01T09:49:27.058Z,1024.50
2022-12-01T09:50:27.044Z,1024.53
2022-12-01T09:51:27.029Z,1024.47
2022-12-01T09:52:27.018Z,1024.50
2022-12-01T09:53:27.042Z,1024.50
2022-12-01T09:54:27.002Z,1024.50
2022-12-01T09:55:26.991Z,1024.52
2022-12-01T09:56:26.980Z,1024.50
2022-12-01T09:57:26.968Z,1024.49
2022-12-01T09:58:26.965Z,1024.50
2022-12-01T09:59:26.943Z,1024.48
2022-12-01T10:00:26.933Z,1024.53
2022-12-01T10:01:27.506Z,1024.51
2022-12-01T10:02:27.002Z,1024.50
2022-12-01T10:03:26.909Z,1024.49
2022-12-01T10:04:26.889Z,1024.48
2022-12-01T10:05:26.991Z,1024.49
2022-12-01T10:06:28.450Z,1024.45
2022-12-01T10:07:26.906Z,1024.45
2022-12-01T10:08:27.260Z,1024.42
2022-12-01T10:09:26.871Z,1024.40
2022-12-01T10:10:26.827Z,1024.45
2022-12-01T10:11:26.820Z,1024.40
2022-12-01T10:12:26.806Z,1024.36
2022-12-01T10:13:26.804Z,1024.39
2022-12-01T10:14:26.785Z,1024.40
2022-12-01T10:15:26.778Z,1024.38
2022-12-01T10:16:26.827Z,1024.41
2022-12-01T10:17:26.758Z,1024.42
2022-12-01T10:18:26.754Z,1024.34
2022-12-01T10:19:26.736Z,1024.33
2022-12-01T10:20:26.722Z,1024.35
2022-12-01T10:21:26.713Z,1024.33
2022-12-01T10:22:26.701Z,1024.32
2022-12-01T10:23:26.704Z,1024.33
2022-12-01T10:24:26.681Z,1024.31
2022-12-01T10:25:26.693Z,1024.35
2022-12-01T10:26:26.663Z,1024.36
2022-12-01T10:27:26.685Z,1024.26
2022-12-01T10:28:26.658Z,1024.40
2022-12-01T10:29:26.641Z,1024.34
2022-12-01T10:30:26.678Z,1024.34
2022-12-01T10:31:26.685Z,1024.31
2022-12-01T10:32:26.594Z,1024.31
2022-12-01T10:33:26.605Z,1024.26
2022-12-01T10:34:26.573Z,1024.26
2022-12-01T10:35:26.563Z,1024.20
2022-12-01T10:36:26.552Z,1024.23
2022-12-01T10:37:26.573Z,1024.19
2022-12-01T10:38:26.544Z,1024.18
2022-12-01T10:39:26.521Z,1024.23
2022-12-01T10:40:26.511Z,1024.24
2022-12-01T10:41:26.516Z,1024.24
2022-12-01T10:42:26.489Z,1024.26
2022-12-01T10:43:26.493Z,1024.26
2022-12-01T10:44:26.470Z,1024.24
2022-12-01T10:45:26.588Z,1024.20
2022-12-01T10:46:26.459Z,1024.19
2022-12-01T10:47:26.436Z,1024.22
2022-12-01T10:48:26.435Z,1024.17
2022-12-01T10:49:26.414Z,1024.20
2022-12-01T10:50:26.408Z,1024.16
2022-12-01T10:51:26.395Z,1024.17
2022-12-01T10:52:26.459Z,1024.15
2022-12-01T10:53:26.410Z,1024.11
2022-12-01T10:54:26.364Z,1024.13
2022-12-01T10:55:26.358Z,1024.11
2022-12-01T10:56:26.348Z,1024.12
2022-12-01T10:57:26.346Z,1024.13
2022-12-01T10:58:26.326Z,1024.14
2022-12-01T10:59:26.316Z,1024.16
2022-12-01T11:00:57.964Z,1024.19
2022-12-01T11:01:27.507Z,1024.13
2022-12-01T11:02:26.561Z,1024.11
2022-12-01T11:03:26.528Z,1024.11
2022-12-01T11:04:26.339Z,1024.09
2022-12-01T11:05:26.246Z,1024.08
2022-12-01T11:06:26.243Z,1024.08
2022-12-01T11:07:26.291Z,1024.04
2022-12-01T11:08:26.237Z,1024.04
2022-12-01T11:09:26.734Z,1024.07
2022-12-01T11:10:26.198Z,1024.08
2022-12-01T11:11:26.184Z,1024.17
2022-12-01T11:12:26.178Z,1024.08
2022-12-01T11:13:26.206Z,1024.07
2022-12-01T11:14:26.161Z,1024.09
2022-12-01T11:15:26.139Z,1024.05
2022-12-01T11:16:26.323Z,1024.11
2022-12-01T11:17:26.121Z,1024.10
2022-12-01T11:18:26.146Z,1024.09
2022-12-01T11:19:27.789Z,1024.11
2022-12-01T11:20:26.201Z,1024.04
2022-12-01T11:21:26.118Z,1024.10
2022-12-01T11:22:26.066Z,1024.08
2022-12-01T11:23:26.063Z,1024.09
2022-12-01T11:24:26.052Z,1024.08
2022-12-01T11:25:26.056Z,1024.03
2022-12-01T11:26:26.056Z,1024.06
2022-12-01T11:27:26.029Z,1024.05
2022-12-01T11:28:26.017Z,1024.02
2022-12-01T11:29:26.031Z,1024.00
2022-12-01T11:30:25.984Z,1023.95
2022-12-01T11:31:26.087Z,1023.97
2022-12-01T11:32:25.962Z,1023.96
2022-12-01T11:33:25.958Z,1023.97
2022-12-01T11:34:25.938Z,1023.99
2022-12-01T11:35:25.929Z,1023.90
2022-12-01T11:36:25.919Z,1023.92
2022-12-01T11:37:25.912Z,1023.89
2022-12-01T11:38:30.060Z,1023.92
2022-12-01T11:39:25.891Z,1023.93
2022-12-01T11:40:25.880Z,1023.92
2022-12-01T11:41:25.869Z,1023.99
2022-12-01T11:42:25.852Z,1023.99
2022-12-01T11:43:25.860Z,1023.97
2022-12-01T11:44:50.203Z,1023.95
2022-12-01T11:46:36.957Z,1023.95
2022-12-01T11:47:36.697Z,1023.98
2022-12-01T11:48:36.773Z,1023.93
2022-12-01T11:49:36.664Z,1023.95
2022-12-01T11:50:36.690Z,1023.95
2022-12-01T11:51:36.644Z,1023.99
2022-12-01T11:52:36.863Z,1024.00
2022-12-01T11:53:36.634Z,1023.96
2022-12-01T11:54:36.620Z,1023.93
2022-12-01T11:55:36.603Z,1023.96
2022-12-01T11:56:36.616Z,1023.94
2022-12-01T11:57:36.585Z,1023.91
2022-12-01T11:58:36.622Z,1023.90
2022-12-01T11:59:36.565Z,1023.97
2022-12-01T12:00:36.549Z,1023.93
2022-12-01T12:01:36.546Z,1023.97
2022-12-01T12:02:36.619Z,1023.96
2022-12-01T12:03:36.606Z,1023.94
2022-12-01T12:04:36.507Z,1023.94
2022-12-01T12:05:36.513Z,1023.96
2022-12-01T12:06:40.487Z,1023.93